createdAt,value
2018-09-25T00:00:09.045Z,94.56
2018-09-25T00:01:09.031Z,94.56
2018-09-25T00:02:09.025Z,94.56
2018-09-25T00:03:09.017Z,94.27
2018-09-25T00:04:09.008Z,94.18
2018-09-25T00:05:09.004Z,93.98
2018-09-25T00:06:08.995Z,94.08
2018-09-25T00:07:08.984Z,94.37
2018-09-25T00:08:08.975Z,93.89
2018-09-25T00:09:08.972Z,93.98
2018-09-25T00:10:08.993Z,94.18
2018-09-25T00:11:08.956Z,94.18
2018-09-25T00:12:08.949Z,94.46
2018-09-25T00:13:08.935Z,94.56
2018-09-25T00:14:08.926Z,95.12
2018-09-25T00:15:08.920Z,94.93
2018-09-25T00:16:08.910Z,95.08
2018-09-25T00:17:08.908Z,94.93
2018-09-25T00:18:08.899Z,95.22
2018-09-25T00:19:08.891Z,95.03
2018-09-25T00:20:08.884Z,94.84
2018-09-25T00:21:08.868Z,94.74
2018-09-25T00:22:08.861Z,94.93
2018-09-25T00:23:08.858Z,93.89
2018-09-25T00:24:08.849Z,94.65
2018-09-25T00:25:08.835Z,94.37
2018-09-25T00:26:08.827Z,94.08
2018-09-25T00:27:08.821Z,94.37
2018-09-25T00:28:08.812Z,93.89
2018-09-25T00:29:08.808Z,94.18
2018-09-25T00:30:08.800Z,93.89
2018-09-25T00:31:08.796Z,93.94
2018-09-25T00:32:08.784Z,94.13
2018-09-25T00:33:08.773Z,94.22
2018-09-25T00:34:08.763Z,94.60
2018-09-25T00:35:08.755Z,94.51
2018-09-25T00:36:08.747Z,94.51
2018-09-25T00:37:08.742Z,94.89
2018-09-25T00:38:08.733Z,94.51
2018-09-25T00:39:08.724Z,95.17
2018-09-25T00:40:08.714Z,94.89
2018-09-25T00:41:08.707Z,95.27
2018-09-25T00:42:08.699Z,94.89
2018-09-25T00:43:08.693Z,95.27
2018-09-25T00:44:08.685Z,95.08
2018-09-25T00:45:08.670Z,95.17
2018-09-25T00:46:08.661Z,95.17
2018-09-25T00:47:08.756Z,95.46
2018-09-25T00:48:08.645Z,94.89
2018-09-25T00:49:08.641Z,95.27
2018-09-25T00:50:08.636Z,95.17
2018-09-25T00:51:08.625Z,94.98
2018-09-25T00:52:08.617Z,94.79
2018-09-25T00:53:08.603Z,94.98
2018-09-25T00:54:08.595Z,94.70
2018-09-25T00:55:08.594Z,94.98
2018-09-25T00:56:08.585Z,94.98
2018-09-25T00:57:08.570Z,95.36
2018-09-25T00:58:08.561Z,95.17
2018-09-25T00:59:08.559Z,95.27
2018-09-25T01:00:08.545Z,95.27
2018-09-25T01:01:08.540Z,95.36
2018-09-25T01:02:08.531Z,95.46
2018-09-25T01:03:08.524Z,95.84
2018-09-25T01:04:08.515Z,95.56
2018-09-25T01:05:08.501Z,95.94
2018-09-25T01:06:08.495Z,95.75
2018-09-25T01:07:08.485Z,95.46
2018-09-25T01:08:08.482Z,95.94
2018-09-25T01:09:08.473Z,95.46
2018-09-25T01:10:08.464Z,95.08
2018-09-25T01:11:08.451Z,95.36
2018-09-25T01:12:08.442Z,94.79
2018-09-25T01:13:08.439Z,94.60
2018-09-25T01:14:08.430Z,94.51
2018-09-25T01:15:08.421Z,94.79
2018-09-25T01:16:08.414Z,94.51
2018-09-25T01:17:08.399Z,94.98
2018-09-25T01:18:08.391Z,94.79
2018-09-25T01:19:08.436Z,94.70
2018-09-25T01:20:08.374Z,94.70
2018-09-25T01:21:08.369Z,95.17
2018-09-25T01:22:08.360Z,95.08
2018-09-25T01:23:08.354Z,95.27
2018-09-25T01:24:08.344Z,95.08
2018-09-25T01:25:08.333Z,94.79
2018-09-25T01:26:08.321Z,94.98
2018-09-25T01:27:08.321Z,94.79
2018-09-25T01:28:08.311Z,95.12
2018-09-25T01:29:08.295Z,94.70
2018-09-25T01:30:08.288Z,95.08
2018-09-25T01:31:08.280Z,94.60
2018-09-25T01:32:08.271Z,94.65
2018-09-25T01:33:08.266Z,95.08
2018-09-25T01:34:08.259Z,95.03
2018-09-25T01:35:08.250Z,94.56
2018-09-25T01:36:08.241Z,94.93
2018-09-25T01:37:08.227Z,94.65
2018-09-25T01:38:08.218Z,94.93
2018-09-25T01:39:08.210Z,94.46
2018-09-25T01:40:08.202Z,94.56
2018-09-25T01:41:08.198Z,94.27
2018-09-25T01:42:08.189Z,95.03
2018-09-25T01:43:08.176Z,95.12
2018-09-25T01:44:08.167Z,95.03
2018-09-25T01:45:08.163Z,95.03
2018-09-25T01:46:08.154Z,95.03
2018-09-25T01:47:08.144Z,95.12
2018-09-25T01:48:08.137Z,94.27
2018-09-25T01:49:08.124Z,94.93
2018-09-25T01:50:08.116Z,94.84
2018-09-25T01:51:08.105Z,94.74
2018-09-25T01:52:08.098Z,95.22
2018-09-25T01:53:08.095Z,95.41
2018-09-25T01:54:08.084Z,95.89
2018-09-25T01:55:08.077Z,95.79
2018-09-25T01:56:08.069Z,96.45
2018-09-25T01:57:08.053Z,96.17
2018-09-25T01:58:08.045Z,95.89
2018-09-25T01:59:08.041Z,96.36
2018-09-25T02:00:08.037Z,96.65
2018-09-25T02:01:08.018Z,96.17
2018-09-25T02:02:08.011Z,96.36
2018-09-25T02:03:08.005Z,96.17
2018-09-25T02:04:07.997Z,96.36
2018-09-25T02:05:07.986Z,96.26
2018-09-25T02:06:07.979Z,96.55
2018-09-25T02:07:07.969Z,96.74
2018-09-25T02:08:07.961Z,96.17
2018-09-25T02:09:07.947Z,96.74
2018-09-25T02:10:07.938Z,96.08
2018-09-25T02:11:07.933Z,96.08
2018-09-25T02:12:07.921Z,96.08
2018-09-25T02:13:07.917Z,96.26
2018-09-25T02:14:07.910Z,96.26
2018-09-25T02:15:07.897Z,96.55
2018-09-25T02:16:07.886Z,95.70
2018-09-25T02:17:07.881Z,95.89
2018-09-25T02:18:07.872Z,96.36
2018-09-25T02:19:07.864Z,96.17
2018-09-25T02:20:07.855Z,96.08
2018-09-25T02:21:07.845Z,95.98
2018-09-25T02:22:07.833Z,96.08
2018-09-25T02:23:07.824Z,96.55
2018-09-25T02:24:07.818Z,96.45
2018-09-25T02:25:07.810Z,96.36
2018-09-25T02:26:07.801Z,96.17
2018-09-25T02:27:07.793Z,96.45
2018-09-25T02:28:07.795Z,96.26
2018-09-25T02:29:07.769Z,96.17
2018-09-25T02:30:07.770Z,96.45
2018-09-25T02:31:07.757Z,97.31
2018-09-25T02:32:07.749Z,97.41
2018-09-25T02:33:07.733Z,97.88
2018-09-25T02:34:07.725Z,98.36
2018-09-25T02:35:07.715Z,99.02
2018-09-25T02:36:07.707Z,98.55
2018-09-25T02:37:07.702Z,99.50
2018-09-25T02:38:07.693Z,99.21
2018-09-25T02:39:07.683Z,99.78
2018-09-25T02:40:07.675Z,99.21
2018-09-25T02:41:07.661Z,99.78
2018-09-25T02:42:07.652Z,99.59
2018-09-25T02:43:07.655Z,99.99
2018-09-25T02:44:07.635Z,99.50
2018-09-25T02:45:07.629Z,99.99
2018-09-25T02:46:07.621Z,99.99
2018-09-25T02:47:07.608Z,99.30
2018-09-25T02:48:07.597Z,99.59
2018-09-25T02:49:07.596Z,99.40
2018-09-25T02:50:07.584Z,99.30
2018-09-25T02:51:07.578Z,99.30
2018-09-25T02:52:07.566Z,99.02
2018-09-25T02:53:07.562Z,99.21
2018-09-25T02:54:07.543Z,99.30
2018-09-25T02:55:07.536Z,99.99
2018-09-25T02:56:07.526Z,99.97
2018-09-25T02:57:07.520Z,99.30
2018-09-25T02:58:07.511Z,99.11
2018-09-25T02:59:07.503Z,99.69
2018-09-25T03:00:07.492Z,99.69
2018-09-25T03:01:07.479Z,99.40
2018-09-25T03:02:07.473Z,99.30
2018-09-25T03:03:07.464Z,99.59
2018-09-25T03:04:07.460Z,99.11
2018-09-25T03:05:07.443Z,99.97
2018-09-25T03:06:07.433Z,99.78
2018-09-25T03:07:07.427Z,99.21
2018-09-25T03:08:07.422Z,99.50
2018-09-25T03:09:07.413Z,98.64
2018-09-25T03:10:07.415Z,97.88
2018-09-25T03:11:07.393Z,97.69
2018-09-25T03:12:07.385Z,97.31
2018-09-25T03:13:07.370Z,97.12
2018-09-25T03:14:07.360Z,96.65
2018-09-25T03:15:07.353Z,96.26
2018-09-25T03:16:07.344Z,96.26
2018-09-25T03:17:07.338Z,96.26
2018-09-25T03:18:07.329Z,96.26
2018-09-25T03:19:07.367Z,95.98
2018-09-25T03:20:07.307Z,96.36
2018-09-25T03:21:07.303Z,96.17
2018-09-25T03:22:07.321Z,96.17
2018-09-25T03:23:07.287Z,96.08
2018-09-25T03:24:07.276Z,96.26
2018-09-25T03:25:07.262Z,96.17
2018-09-25T03:26:07.253Z,96.41
2018-09-25T03:27:07.243Z,95.65
2018-09-25T03:28:07.235Z,95.79
2018-09-25T03:29:07.230Z,95.41
2018-09-25T03:30:07.221Z,95.84
2018-09-25T03:31:07.210Z,96.22
2018-09-25T03:32:07.203Z,95.65
2018-09-25T03:33:07.188Z,95.75
2018-09-25T03:34:07.178Z,96.31
2018-09-25T03:35:07.175Z,96.03
2018-09-25T03:36:07.166Z,96.50
2018-09-25T03:37:07.152Z,96.31
2018-09-25T03:38:07.144Z,96.12
2018-09-25T03:39:07.134Z,96.31
2018-09-25T03:40:07.126Z,96.03
2018-09-25T03:41:07.121Z,96.12
2018-09-25T03:42:07.110Z,96.31
2018-09-25T03:43:07.102Z,96.03
2018-09-25T03:44:07.093Z,96.41
2018-09-25T03:45:07.085Z,96.03
2018-09-25T03:46:07.069Z,96.22
2018-09-25T03:47:07.061Z,96.03
2018-09-25T03:48:07.050Z,96.69
2018-09-25T03:49:07.045Z,96.03
2018-09-25T03:50:07.039Z,96.79
2018-09-25T03:51:07.024Z,97.27
2018-09-25T03:52:07.015Z,96.88
2018-09-25T03:53:07.010Z,96.69
2018-09-25T03:54:07.001Z,96.88
2018-09-25T03:55:06.994Z,97.07
2018-09-25T03:56:06.983Z,96.88
2018-09-25T03:57:06.977Z,96.98
2018-09-25T03:58:06.960Z,96.98
2018-09-25T03:59:06.955Z,96.50
2018-09-25T04:00:06.943Z,96.60
2018-09-25T04:01:06.937Z,96.31
2018-09-25T04:02:06.927Z,96.50
2018-09-25T04:03:06.920Z,96.41
2018-09-25T04:04:06.910Z,96.60
2018-09-25T04:05:06.895Z,96.98
2018-09-25T04:06:06.891Z,97.17
2018-09-25T04:07:06.882Z,96.88
2018-09-25T04:08:06.873Z,96.98
2018-09-25T04:09:06.858Z,96.98
2018-09-25T04:10:06.858Z,97.07
2018-09-25T04:11:06.840Z,97.45
2018-09-25T04:12:06.831Z,96.88
2018-09-25T04:13:06.824Z,96.79
2018-09-25T04:14:06.816Z,96.41
2018-09-25T04:15:06.810Z,96.22
2018-09-25T04:16:06.799Z,96.31
2018-09-25T04:17:06.784Z,96.03
2018-09-25T04:18:06.775Z,96.31
2018-09-25T04:19:06.765Z,96.50
2018-09-25T04:20:06.757Z,96.50
2018-09-25T04:21:06.752Z,96.98
2018-09-25T04:22:06.743Z,98.02
2018-09-25T04:23:06.728Z,97.74
2018-09-25T04:24:06.720Z,97.64
2018-09-25T04:25:06.714Z,97.74
2018-09-25T04:26:06.708Z,98.50
2018-09-25T04:27:06.696Z,98.69
2018-09-25T04:28:06.686Z,98.12
2018-09-25T04:29:06.671Z,97.74
2018-09-25T04:30:06.664Z,97.92
2018-09-25T04:31:06.654Z,97.07
2018-09-25T04:32:06.645Z,96.98
2018-09-25T04:33:06.640Z,97.07
2018-09-25T04:34:06.635Z,96.98
2018-09-25T04:35:06.621Z,97.45
2018-09-25T04:36:06.612Z,96.88
2018-09-25T04:37:06.611Z,96.88
2018-09-25T04:38:06.588Z,97.07
2018-09-25T04:39:06.585Z,96.79
2018-09-25T04:40:06.575Z,97.02
2018-09-25T04:41:06.561Z,96.74
2018-09-25T04:42:06.551Z,97.02
2018-09-25T04:43:06.542Z,96.55
2018-09-25T04:44:06.534Z,97.41
2018-09-25T04:45:06.526Z,97.22
2018-09-25T04:46:06.518Z,97.31
2018-09-25T04:47:06.551Z,97.31
2018-09-25T04:48:06.498Z,97.60
2018-09-25T04:49:06.485Z,97.41
2018-09-25T04:50:06.476Z,97.88
2018-09-25T04:51:06.467Z,97.31
2018-09-25T04:52:06.458Z,97.02
2018-09-25T04:53:06.452Z,97.31
2018-09-25T04:54:06.442Z,96.83
2018-09-25T04:55:06.431Z,97.41
2018-09-25T04:56:06.419Z,96.93
2018-09-25T04:57:06.480Z,97.12
2018-09-25T04:58:06.407Z,97.41
2018-09-25T04:59:06.395Z,97.41
2018-09-25T05:00:06.386Z,97.69
2018-09-25T05:01:06.371Z,97.78
2018-09-25T05:02:06.362Z,97.78
2018-09-25T05:03:06.352Z,97.78
2018-09-25T05:04:06.345Z,97.69
2018-09-25T05:05:06.338Z,97.69
2018-09-25T05:06:06.329Z,97.88
2018-09-25T05:07:06.320Z,97.78
2018-09-25T05:08:06.311Z,97.78
2018-09-25T05:09:06.294Z,97.60
2018-09-25T05:10:06.285Z,97.78
2018-09-25T05:11:06.280Z,97.97
2018-09-25T05:12:06.383Z,97.78
2018-09-25T05:13:06.257Z,97.97
2018-09-25T05:14:06.250Z,97.12
2018-09-25T05:15:06.239Z,96.74
2018-09-25T05:16:06.230Z,97.12
2018-09-25T05:17:06.224Z,97.02
2018-09-25T05:18:06.221Z,97.02
2018-09-25T05:19:06.225Z,96.83
2018-09-25T05:20:06.197Z,96.83
2018-09-25T05:21:06.182Z,97.60
2018-09-25T05:22:06.173Z,97.78
2018-09-25T05:23:06.163Z,98.45
2018-09-25T05:24:06.152Z,99.02
2018-09-25T05:25:06.148Z,99.21
2018-09-25T05:26:06.338Z,98.35
2018-09-25T05:27:06.124Z,98.16
2018-09-25T05:28:06.115Z,97.97
2018-09-25T05:29:06.109Z,98.16
2018-09-25T05:30:06.100Z,98.16
2018-09-25T05:31:06.091Z,97.60
2018-09-25T05:32:06.082Z,97.69
2018-09-25T05:33:06.067Z,98.07
2018-09-25T05:34:06.057Z,97.41
2018-09-25T05:35:06.049Z,97.31
2018-09-25T05:36:06.039Z,97.60
2018-09-25T05:37:06.033Z,97.97
2018-09-25T05:38:06.023Z,97.78
2018-09-25T05:39:06.016Z,97.92
2018-09-25T05:40:06.006Z,98.40
2018-09-25T05:41:05.994Z,99.26
2018-09-25T05:42:05.980Z,98.79
2018-09-25T05:43:05.976Z,99.35
2018-09-25T05:44:05.966Z,99.07
2018-09-25T05:45:05.952Z,98.69
2018-09-25T05:46:05.942Z,98.40
2018-09-25T05:47:05.934Z,98.21
2018-09-25T05:48:06.004Z,97.83
2018-09-25T05:49:05.964Z,97.92
2018-09-25T05:50:05.911Z,97.83
2018-09-25T05:51:05.901Z,97.17
2018-09-25T05:52:05.892Z,96.98
2018-09-25T05:53:05.877Z,97.07
2018-09-25T05:54:05.869Z,98.17
2018-09-25T05:55:05.859Z,98.45
2018-09-25T05:56:05.850Z,98.69
2018-09-25T05:57:05.845Z,98.27
2018-09-25T05:58:05.836Z,97.50
2018-09-25T05:59:05.823Z,97.27
2018-09-25T06:00:05.814Z,94.65
2018-09-25T06:01:05.877Z,93.27
2018-09-25T06:02:05.801Z,91.84
2018-09-25T06:03:05.792Z,90.64
2018-09-25T06:04:05.786Z,89.03
2018-09-25T06:05:05.771Z,87.69
2018-09-25T06:06:05.763Z,87.60
2018-09-25T06:07:05.761Z,86.83
2018-09-25T06:08:05.752Z,87.40
2018-09-25T06:09:05.780Z,86.83
2018-09-25T06:10:05.731Z,86.83
2018-09-25T06:11:05.725Z,86.74
2018-09-25T06:12:05.717Z,86.98
2018-09-25T06:13:05.713Z,86.69
2018-09-25T06:14:05.710Z,85.39
2018-09-25T06:15:05.695Z,84.00
2018-09-25T06:16:05.688Z,83.38
2018-09-25T06:17:05.684Z,82.18
2018-09-25T06:18:05.678Z,79.73
2018-09-25T06:19:05.674Z,78.72
2018-09-25T06:20:05.667Z,77.33
2018-09-25T06:21:05.656Z,76.02
2018-09-25T06:22:05.647Z,73.95
2018-09-25T06:23:05.751Z,72.42
2018-09-25T06:24:05.637Z,71.21
2018-09-25T06:25:05.633Z,70.38
2018-09-25T06:26:05.630Z,69.13
2018-09-25T06:27:05.627Z,68.21
2018-09-25T06:28:05.624Z,67.54
2018-09-25T06:29:05.611Z,67.09
2018-09-25T06:30:05.607Z,65.69
2018-09-25T06:31:05.607Z,65.33
2018-09-25T06:32:05.604Z,64.09
2018-09-25T06:33:05.595Z,63.64
2018-09-25T06:34:05.593Z,62.77
2018-09-25T06:35:05.603Z,61.94
2018-09-25T06:36:05.586Z,61.10
2018-09-25T06:37:05.624Z,60.24
2018-09-25T06:38:05.586Z,59.49
2018-09-25T06:39:05.584Z,59.30
2018-09-25T06:40:05.582Z,57.89
2018-09-25T06:41:05.575Z,57.43
2018-09-25T06:42:05.575Z,56.95
2018-09-25T06:43:05.574Z,56.30
2018-09-25T06:44:05.575Z,55.44
2018-09-25T06:45:05.578Z,55.76
2018-09-25T06:46:05.575Z,54.69
2018-09-25T06:47:05.631Z,54.43
2018-09-25T06:48:05.570Z,53.66
2018-09-25T06:49:05.574Z,52.72
2018-09-25T06:50:05.574Z,52.72
2018-09-25T06:51:05.574Z,52.62
2018-09-25T06:52:05.584Z,52.33
2018-09-25T06:53:05.571Z,52.40
2018-09-25T06:54:05.571Z,52.01
2018-09-25T06:55:05.764Z,52.40
2018-09-25T06:56:05.573Z,52.01
2018-09-25T06:57:05.578Z,52.25
2018-09-25T06:58:05.580Z,53.07
2018-09-25T06:59:05.583Z,54.22
2018-09-25T07:00:05.583Z,55.29
2018-09-25T07:01:05.580Z,55.48
2018-09-25T07:02:05.580Z,56.25
2018-09-25T07:03:05.588Z,56.25
2018-09-25T07:04:05.590Z,56.49
2018-09-25T07:05:05.585Z,55.36
2018-09-25T07:06:05.588Z,54.75
2018-09-25T07:07:05.590Z,53.42
2018-09-25T07:08:05.591Z,52.09
2018-09-25T07:09:05.601Z,50.96
2018-09-25T07:10:05.804Z,50.50
2018-09-25T07:11:05.604Z,50.14
2018-09-25T07:12:05.608Z,48.81
2018-09-25T07:13:05.604Z,48.20
2018-09-25T07:14:05.607Z,47.84
2018-09-25T07:15:05.610Z,47.04
2018-09-25T07:16:05.614Z,47.62
2018-09-25T07:17:05.619Z,48.03
2018-09-25T07:18:05.702Z,47.16
2018-09-25T07:19:05.623Z,46.87
2018-09-25T07:20:05.626Z,46.75
2018-09-25T07:21:05.634Z,47.26
2018-09-25T07:22:05.638Z,47.26
2018-09-25T07:23:05.643Z,46.87
2018-09-25T07:24:05.648Z,46.80
2018-09-25T07:25:05.728Z,46.33
2018-09-25T07:26:05.650Z,46.24
2018-09-25T07:27:05.656Z,45.03
2018-09-25T07:28:05.659Z,46.08
2018-09-25T07:29:05.667Z,46.68
2018-09-25T07:30:05.673Z,48.23
2018-09-25T07:31:05.731Z,48.83
2018-09-25T07:32:05.681Z,49.44
2018-09-25T07:33:05.679Z,49.07
2018-09-25T07:34:05.683Z,48.42
2018-09-25T07:35:05.692Z,47.94
2018-09-25T07:36:05.701Z,47.86
2018-09-25T07:37:05.698Z,46.89
2018-09-25T07:38:05.703Z,46.33
2018-09-25T07:39:05.707Z,46.12
2018-09-25T07:40:05.713Z,46.45
2018-09-25T07:41:05.723Z,45.41
2018-09-25T07:42:05.728Z,45.34
2018-09-25T07:43:05.733Z,44.97
2018-09-25T07:44:05.739Z,43.82
2018-09-25T07:45:05.738Z,43.46
2018-09-25T07:46:05.744Z,42.66
2018-09-25T07:47:05.749Z,42.95
2018-09-25T07:48:05.819Z,42.91
2018-09-25T07:49:05.765Z,43.35
2018-09-25T07:50:05.769Z,43.70
2018-09-25T07:51:05.773Z,45.03
2018-09-25T07:52:05.779Z,46.17
2018-09-25T07:53:05.788Z,46.39
2018-09-25T07:54:05.793Z,46.72
2018-09-25T07:55:05.801Z,46.36
2018-09-25T07:56:05.807Z,46.12
2018-09-25T07:57:05.808Z,46.33
2018-09-25T07:58:05.815Z,46.24
2018-09-25T07:59:05.820Z,45.51
2018-09-25T08:00:05.828Z,46.03
2018-09-25T08:01:05.838Z,47.00
2018-09-25T08:02:05.846Z,48.21
2018-09-25T08:03:05.869Z,49.29
2018-09-25T08:04:05.857Z,51.36
2018-09-25T08:05:05.858Z,52.16
2018-09-25T08:06:05.865Z,53.03
2018-09-25T08:07:05.874Z,53.92
2018-09-25T08:08:05.883Z,53.66
2018-09-25T08:09:05.905Z,54.24
2018-09-25T08:10:05.889Z,53.56
2018-09-25T08:11:05.899Z,52.94
2018-09-25T08:12:05.904Z,52.22
2018-09-25T08:13:05.914Z,51.50
2018-09-25T08:14:05.921Z,51.18
2018-09-25T08:15:05.926Z,50.09
2018-09-25T08:16:05.933Z,50.31
2018-09-25T08:17:05.937Z,49.37
2018-09-25T08:18:05.941Z,48.97
2018-09-25T08:19:05.949Z,48.79
2018-09-25T08:20:05.956Z,48.30
2018-09-25T08:21:05.967Z,47.99
2018-09-25T08:22:05.977Z,50.52
2018-09-25T08:23:05.975Z,51.27
2018-09-25T08:24:05.984Z,51.44
2018-09-25T08:25:05.994Z,51.37
2018-09-25T08:26:06.002Z,51.25
2018-09-25T08:27:06.009Z,50.12
2018-09-25T08:28:06.016Z,48.81
2018-09-25T08:29:06.019Z,48.08
2018-09-25T08:30:06.026Z,46.53
2018-09-25T08:31:06.039Z,46.26
2018-09-25T08:32:06.040Z,46.28
2018-09-25T08:33:06.052Z,44.54
2018-09-25T08:34:06.059Z,43.88
2018-09-25T08:35:06.109Z,43.63
2018-09-25T08:36:06.077Z,42.66
2018-09-25T08:37:06.081Z,41.78
2018-09-25T08:38:06.090Z,41.98
2018-09-25T08:39:06.140Z,41.20
2018-09-25T08:40:06.109Z,41.44
2018-09-25T08:41:06.112Z,41.14
2018-09-25T08:42:06.121Z,40.48
2018-09-25T08:43:06.130Z,40.17
2018-09-25T08:44:06.140Z,39.90
2018-09-25T08:45:06.150Z,40.23
2018-09-25T08:46:06.159Z,39.51
2018-09-25T08:47:06.218Z,39.26
2018-09-25T08:48:06.181Z,38.89
2018-09-25T08:49:06.182Z,38.42
2018-09-25T08:50:06.191Z,38.24
2018-09-25T08:51:06.201Z,37.40
2018-09-25T08:52:06.211Z,36.91
2018-09-25T08:53:06.225Z,36.52
2018-09-25T08:54:06.235Z,35.68
2018-09-25T08:55:06.239Z,35.30
2018-09-25T08:56:06.250Z,35.11
2018-09-25T08:57:06.267Z,34.74
2018-09-25T08:58:06.281Z,34.57
2018-09-25T08:59:06.286Z,34.10
2018-09-25T09:00:06.296Z,33.54
2018-09-25T09:01:06.480Z,33.17
2018-09-25T09:02:06.313Z,32.38
2018-09-25T09:03:06.325Z,31.60
2018-09-25T09:04:06.336Z,31.73
2018-09-25T09:05:06.351Z,31.93
2018-09-25T09:06:06.363Z,32.43
2018-09-25T09:07:06.375Z,32.35
2018-09-25T09:08:06.420Z,32.56
2018-09-25T09:09:06.396Z,32.92
2018-09-25T09:10:06.408Z,33.72
2018-09-25T09:11:06.422Z,34.03
2018-09-25T09:12:06.435Z,33.75
2018-09-25T09:13:06.488Z,33.10
2018-09-25T09:14:06.453Z,32.68
2018-09-25T09:15:06.465Z,32.48
2018-09-25T09:16:06.479Z,32.97
2018-09-25T09:17:06.494Z,32.97
2018-09-25T09:18:06.508Z,32.97
2018-09-25T09:19:06.520Z,33.29
2018-09-25T09:20:06.578Z,33.09
2018-09-25T09:21:06.539Z,32.30
2018-09-25T09:22:06.551Z,32.30
2018-09-25T09:23:06.565Z,31.91
2018-09-25T09:24:06.579Z,32.03
2018-09-25T09:25:06.645Z,32.03
2018-09-25T09:26:06.607Z,31.93
2018-09-25T09:27:06.621Z,31.65
2018-09-25T09:28:06.629Z,31.73
2018-09-25T09:29:06.643Z,31.96
2018-09-25T09:30:06.657Z,31.58
2018-09-25T09:31:06.671Z,30.99
2018-09-25T09:32:06.685Z,30.22
2018-09-25T09:33:06.690Z,30.43
2018-09-25T09:34:06.704Z,30.65
2018-09-25T09:35:06.718Z,29.58
2018-09-25T09:36:06.730Z,30.91
2018-09-25T09:37:06.748Z,31.42
2018-09-25T09:38:06.761Z,31.62
2018-09-25T09:39:06.773Z,31.90
2018-09-25T09:40:06.787Z,33.25
2018-09-25T09:41:06.874Z,33.97
2018-09-25T09:42:06.968Z,34.38
2018-09-25T09:43:06.825Z,34.11
2018-09-25T09:44:06.839Z,33.23
2018-09-25T09:45:06.848Z,32.09
2018-09-25T09:46:06.861Z,31.80
2018-09-25T09:47:06.876Z,31.70
2018-09-25T09:48:06.887Z,31.57
2018-09-25T09:49:06.904Z,31.99
2018-09-25T09:50:06.917Z,32.01
2018-09-25T09:51:06.934Z,30.91
2018-09-25T09:52:06.944Z,31.04
2018-09-25T09:53:06.951Z,30.85
2018-09-25T09:54:06.965Z,30.22
2018-09-25T09:55:07.002Z,30.93
2018-09-25T09:56:06.991Z,31.04
2018-09-25T09:57:07.009Z,30.47
2018-09-25T09:58:07.026Z,29.38
2018-09-25T09:59:07.031Z,31.27
2018-09-25T10:00:07.045Z,32.32
2018-09-25T10:01:07.060Z,33.11
2018-09-25T10:02:07.074Z,33.88
2018-09-25T10:03:07.089Z,34.31
2018-09-25T10:04:07.101Z,34.34
2018-09-25T10:05:07.108Z,33.83
2018-09-25T10:06:07.121Z,33.46
2018-09-25T10:07:07.167Z,33.58
2018-09-25T10:08:07.147Z,33.06
2018-09-25T10:09:07.164Z,33.72
2018-09-25T10:10:07.176Z,34.05
2018-09-25T10:11:07.188Z,33.65
2018-09-25T10:12:07.204Z,33.01
2018-09-25T10:13:07.208Z,32.32
2018-09-25T10:14:07.221Z,32.13
2018-09-25T10:15:07.239Z,32.82
2018-09-25T10:16:07.251Z,32.27
2018-09-25T10:17:07.258Z,31.70
2018-09-25T10:18:07.271Z,30.74
2018-09-25T10:19:07.284Z,30.77
2018-09-25T10:20:07.299Z,31.06
2018-09-25T10:21:07.314Z,30.40
2018-09-25T10:22:07.328Z,29.44
2018-09-25T10:23:07.340Z,28.95
2018-09-25T10:24:07.353Z,28.29
2018-09-25T10:25:07.360Z,27.60
2018-09-25T10:26:07.374Z,28.20
2018-09-25T10:27:07.399Z,27.87
2018-09-25T10:28:07.399Z,28.06
2018-09-25T10:29:07.416Z,28.34
2018-09-25T10:30:07.429Z,28.34
2018-09-25T10:31:07.437Z,28.40
2018-09-25T10:32:07.452Z,28.82
2018-09-25T10:33:07.468Z,28.91
2018-09-25T10:34:07.522Z,30.05
2018-09-25T10:35:07.496Z,30.74
2018-09-25T10:36:07.507Z,31.51
2018-09-25T10:37:07.516Z,33.22
2018-09-25T10:38:07.528Z,35.38
2018-09-25T10:39:07.540Z,37.48
2018-09-25T10:40:07.553Z,38.12
2018-09-25T10:41:07.630Z,39.64
2018-09-25T10:42:07.577Z,40.98
2018-09-25T10:43:07.587Z,42.66
2018-09-25T10:44:07.597Z,42.72
2018-09-25T10:45:07.602Z,42.11
2018-09-25T10:46:07.611Z,41.49
2018-09-25T10:47:07.625Z,40.09
2018-09-25T10:48:07.634Z,38.18
2018-09-25T10:49:07.637Z,36.27
2018-09-25T10:50:07.651Z,34.73
2018-09-25T10:51:07.657Z,33.40
2018-09-25T10:52:07.665Z,32.32
2018-09-25T10:53:07.681Z,31.80
2018-09-25T10:54:07.691Z,31.77
2018-09-25T10:55:07.698Z,32.47
2018-09-25T10:56:07.828Z,32.24
2018-09-25T10:57:07.712Z,32.82
2018-09-25T10:58:07.722Z,32.86
2018-09-25T10:59:07.733Z,33.51
2018-09-25T11:00:07.742Z,34.46
2018-09-25T11:01:07.759Z,36.10
2018-09-25T11:02:07.766Z,37.01
2018-09-25T11:03:07.858Z,37.01
2018-09-25T11:04:07.782Z,37.01
2018-09-25T11:05:07.795Z,37.62
2018-09-25T11:06:07.806Z,37.06
2018-09-25T11:07:07.816Z,35.83
2018-09-25T11:08:07.826Z,34.17
2018-09-25T11:09:07.831Z,33.88
2018-09-25T11:10:07.901Z,33.18
2018-09-25T11:11:07.854Z,32.91
2018-09-25T11:12:07.861Z,33.41
2018-09-25T11:13:07.875Z,33.23
2018-09-25T11:14:07.885Z,33.25
2018-09-25T11:15:07.895Z,33.07
2018-09-25T11:16:07.909Z,32.32
2018-09-25T11:17:07.910Z,31.57
2018-09-25T11:18:07.924Z,31.84
2018-09-25T11:19:07.935Z,32.02
2018-09-25T11:20:07.945Z,33.28
2018-09-25T11:21:07.951Z,35.02
2018-09-25T11:22:07.960Z,35.58
2018-09-25T11:23:07.972Z,36.93
2018-09-25T11:24:07.980Z,37.20
2018-09-25T11:25:07.994Z,38.23
2018-09-25T11:26:08.003Z,38.31
2018-09-25T11:27:08.012Z,39.16
2018-09-25T11:28:08.020Z,40.79
2018-09-25T11:29:08.023Z,41.64
2018-09-25T11:30:08.030Z,42.61
2018-09-25T11:31:08.037Z,43.48
2018-09-25T11:32:08.046Z,43.46
2018-09-25T11:33:08.057Z,43.46
2018-09-25T11:34:08.062Z,43.65
2018-09-25T11:35:08.067Z,43.17
2018-09-25T11:36:08.076Z,42.88
2018-09-25T11:37:08.082Z,42.96
2018-09-25T11:38:08.087Z,43.23
2018-09-25T11:39:08.093Z,43.59
2018-09-25T11:40:08.099Z,43.18
2018-09-25T11:41:08.124Z,43.93
2018-09-25T11:42:08.104Z,44.29
2018-09-25T11:43:08.110Z,45.26
2018-09-25T11:44:08.114Z,45.92
2018-09-25T11:45:08.123Z,45.89
2018-09-25T11:46:08.130Z,46.93
2018-09-25T11:47:08.140Z,47.60
2018-09-25T11:48:08.137Z,48.49
2018-09-25T11:49:08.136Z,48.69
2018-09-25T11:50:08.138Z,49.68
2018-09-25T11:51:08.148Z,49.77
2018-09-25T11:52:08.153Z,48.90
2018-09-25T11:53:08.168Z,47.94
2018-09-25T11:54:08.153Z,47.36
2018-09-25T11:55:08.157Z,46.23
2018-09-25T11:56:08.163Z,47.00
2018-09-25T11:57:08.167Z,47.38
2018-09-25T11:58:08.172Z,46.23
2018-09-25T11:59:08.175Z,45.86
2018-09-25T12:00:08.179Z,45.86
2018-09-25T12:01:08.175Z,45.62
2018-09-25T12:02:08.239Z,45.82
2018-09-25T12:03:08.181Z,46.20
2018-09-25T12:04:08.184Z,45.99
2018-09-25T12:05:08.192Z,45.12
2018-09-25T12:06:08.195Z,45.20
2018-09-25T12:07:08.193Z,45.83
2018-09-25T12:08:08.196Z,46.47
2018-09-25T12:09:08.203Z,47.72
2018-09-25T12:10:08.207Z,47.70
2018-09-25T12:11:08.206Z,48.07
2018-09-25T12:12:08.207Z,49.02
2018-09-25T12:13:08.204Z,49.89
2018-09-25T12:14:08.207Z,50.18
2018-09-25T12:15:08.210Z,51.26
2018-09-25T12:16:08.210Z,51.17
2018-09-25T12:17:08.214Z,51.35
2018-09-25T12:18:08.220Z,51.29
2018-09-25T12:19:08.220Z,51.19
2018-09-25T12:20:08.220Z,51.12
2018-09-25T12:21:08.229Z,50.54
2018-09-25T12:22:08.218Z,50.15
2018-09-25T12:23:08.224Z,51.12
2018-09-25T12:24:08.225Z,50.83
2018-09-25T12:25:08.221Z,50.06
2018-09-25T12:26:08.222Z,49.70
2018-09-25T12:27:08.223Z,49.48
2018-09-25T12:28:08.223Z,48.61
2018-09-25T12:29:08.228Z,49.32
2018-09-25T12:30:08.230Z,49.32
2018-09-25T12:31:08.236Z,50.37
2018-09-25T12:32:08.233Z,50.49
2018-09-25T12:33:08.345Z,50.21
2018-09-25T12:34:08.231Z,50.11
2018-09-25T12:35:08.232Z,50.04
2018-09-25T12:36:08.233Z,50.32
2018-09-25T12:37:08.237Z,49.68
2018-09-25T12:38:08.241Z,48.90
2018-09-25T12:39:08.235Z,48.42
2018-09-25T12:40:08.238Z,47.85
2018-09-25T12:41:08.241Z,47.05
2018-09-25T12:42:08.243Z,46.37
2018-09-25T12:43:08.248Z,46.76
2018-09-25T12:44:08.246Z,46.83
2018-09-25T12:45:08.243Z,46.93
2018-09-25T12:46:08.245Z,46.42
2018-09-25T12:47:08.245Z,47.00
2018-09-25T12:48:08.245Z,46.69
2018-09-25T12:49:08.252Z,47.94
2018-09-25T12:50:08.253Z,47.53
2018-09-25T12:51:08.252Z,47.82
2018-09-25T12:52:08.256Z,47.99